Terminal Aerodrome Forecast
Issued by NWS Wilmington, OH

Home | Current Version | Previous Version | Text Only | Print | Product List | Glossary On
Versions: 1 2 3 4 5 6 7 8 9 10 11 12 13 14 15 16 17 18 19 20 21 22 23 24 25 26 27 28 29 30 31 32 33
000
FTUS41 KILN 200500 RRA
TAFCVG
TAF
KCVG 200543Z 2006/2112 30025G40KT 1SM +TSRA BR OVC015CB
     FM200700 30010KT 6SM -SHRA BR VCTS BKN025 OVC040CB
     FM200800 22005KT 4SM BR BKN100
     FM201000 22005KT 2SM BR BKN012
     FM201400 27007KT P6SM SCT025
     FM201700 29010KT P6SM SCT040
     FM210000 27006KT P6SM SCT100 BKN250
     FM210600 22005KT P6SM VCTS BKN040CB=

USA.gov is the U.S. government's official web portal to all federal, state and local government web resources and services.